Terminal Aerodrome Forecast
Issued by NWS Charleston, WV

Home | Current Version | Previous Version | Text Only | Print | Product List | Glossary On
Versions: 1 2 3 4 5 6 7 8 9 10 11 12 13 14 15 16 17 18 19 20 21 22
179
FTUS41 KRLX 270231 AAA
TAFPKB
TAF AMD
KPKB 270231Z 2703/2724 00000KT P6SM BKN200
     FM270900 00000KT 5SM BR BKN050
     FM271100 00000KT 1SM BR BKN050
     FM271300 00000KT 5SM BR BKN040
     FM271400 00000KT P6SM BKN050
     FM271700 24004KT P6SM SCT040=

USA.gov is the U.S. government's official web portal to all federal, state and local government web resources and services.